Clyde, Iowa
Current Conditions -  °F | °C
As of 2:53 AM on Sunday 23 Nov 2014 (Local Time) from KAMW Reporting Station
Overcast Overcast  
Wind Chill: 53°   Ceiling: 2500
Heat Index: 53°   Visibility: 9mi
Dew Point: 49°   Wind: 13mph
Humidity: 86%   Direction: 190°S
Pressure: 29.56"   Gusts: NA
Location:  41.9063°N, 93.2893°W
Report Text: KAMW 230853Z AUTO 19011KT 9SM SCT016 OVC025 12/09 A2956 RMK AO2 SLP006 T01170094 56023 $
Loading
Personal Weather Stations






























Interactive Weather Map New forecast layout! Learn more

10-Day Weather Forecast

Advertisements
Track Severe Weather on mobile